sensor_id;sensor_type;location;lat;lon;timestamp;P1;durP1;ratioP1;P2;durP2;ratioP2
82296;SDS011;71899;51.992;8.648;2023-10-09T00:00:50;46.53;;;16.40;;
82296;SDS011;71899;51.992;8.648;2023-10-09T00:03:19;34.90;;;14.35;;
82296;SDS011;71899;51.992;8.648;2023-10-09T00:05:49;37.47;;;15.20;;
82296;SDS011;71899;51.992;8.648;2023-10-09T00:08:18;39.85;;;14.98;;
82296;SDS011;71899;51.992;8.648;2023-10-09T00:10:55;36.50;;;14.27;;
82296;SDS011;71899;51.992;8.648;2023-10-09T00:13:25;42.85;;;15.77;;
82296;SDS011;71899;51.992;8.648;2023-10-09T00:15:58;38.53;;;14.52;;
82296;SDS011;71899;51.992;8.648;2023-10-09T00:18:33;42.90;;;14.65;;
82296;SDS011;71899;51.992;8.648;2023-10-09T00:20:59;39.20;;;16.90;;
82296;SDS011;71899;51.992;8.648;2023-10-09T00:23:40;37.03;;;15.18;;
82296;SDS011;71899;51.992;8.648;2023-10-09T00:26:09;45.33;;;16.65;;
82296;SDS011;71899;51.992;8.648;2023-10-09T00:28:45;36.10;;;16.38;;
82296;SDS011;71899;51.992;8.648;2023-10-09T00:31:12;33.58;;;13.98;;
82296;SDS011;71899;51.992;8.648;2023-10-09T00:33:51;34.65;;;14.93;;
82296;SDS011;71899;51.992;8.648;2023-10-09T00:36:17;37.53;;;14.05;;
82296;SDS011;71899;51.992;8.648;2023-10-09T00:38:52;37.28;;;14.80;;
82296;SDS011;71899;51.992;8.648;2023-10-09T00:41:17;39.05;;;14.25;;
82296;SDS011;71899;51.992;8.648;2023-10-09T00:43:47;48.13;;;15.90;;
82296;SDS011;71899;51.992;8.648;2023-10-09T00:46:15;51.28;;;18.70;;
82296;SDS011;71899;51.992;8.648;2023-10-09T00:48:54;46.60;;;18.83;;
82296;SDS011;71899;51.992;8.648;2023-10-09T00:51:21;48.85;;;17.60;;
82296;SDS011;71899;51.992;8.648;2023-10-09T00:53:48;49.60;;;19.23;;
82296;SDS011;71899;51.992;8.648;2023-10-09T00:56:21;50.30;;;17.95;;
82296;SDS011;71899;51.992;8.648;2023-10-09T00:58:50;44.97;;;19.35;;
82296;SDS011;71899;51.992;8.648;2023-10-09T01:01:35;43.20;;;17.13;;
82296;SDS011;71899;51.992;8.648;2023-10-09T01:04:04;43.38;;;17.38;;
82296;SDS011;71899;51.992;8.648;2023-10-09T01:06:37;46.17;;;17.40;;
82296;SDS011;71899;51.992;8.648;2023-10-09T01:09:11;39.28;;;16.45;;
82296;SDS011;71899;51.992;8.648;2023-10-09T01:11:39;43.10;;;17.50;;
82296;SDS011;71899;51.992;8.648;2023-10-09T01:14:13;40.83;;;17.42;;
82296;SDS011;71899;51.992;8.648;2023-10-09T01:16:40;33.78;;;17.35;;
82296;SDS011;71899;51.992;8.648;2023-10-09T01:19:09;34.97;;;15.27;;
82296;SDS011;71899;51.992;8.648;2023-10-09T01:21:50;34.17;;;14.80;;
82296;SDS011;71899;51.992;8.648;2023-10-09T01:24:18;38.95;;;16.88;;
82296;SDS011;71899;51.992;8.648;2023-10-09T01:26:45;35.38;;;15.48;;
82296;SDS011;71899;51.992;8.648;2023-10-09T01:29:15;38.88;;;16.48;;
82296;SDS011;71899;51.992;8.648;2023-10-09T01:31:44;42.83;;;18.88;;
82296;SDS011;71899;51.992;8.648;2023-10-09T01:34:20;42.55;;;17.77;;
82296;SDS011;71899;51.992;8.648;2023-10-09T01:36:53;36.15;;;17.58;;
82296;SDS011;71899;51.992;8.648;2023-10-09T01:39:30;39.88;;;15.60;;
82296;SDS011;71899;51.992;8.648;2023-10-09T01:41:56;41.50;;;16.83;;
82296;SDS011;71899;51.992;8.648;2023-10-09T01:44:28;37.47;;;16.92;;
82296;SDS011;71899;51.992;8.648;2023-10-09T01:47:03;39.40;;;17.30;;
82296;SDS011;71899;51.992;8.648;2023-10-09T01:49:39;36.60;;;17.58;;
82296;SDS011;71899;51.992;8.648;2023-10-09T01:52:08;33.65;;;15.95;;
82296;SDS011;71899;51.992;8.648;2023-10-09T01:54:41;36.88;;;17.58;;
82296;SDS011;71899;51.992;8.648;2023-10-09T01:57:12;37.90;;;17.58;;
82296;SDS011;71899;51.992;8.648;2023-10-09T01:59:39;35.85;;;17.08;;
82296;SDS011;71899;51.992;8.648;2023-10-09T02:02:12;35.72;;;18.73;;
82296;SDS011;71899;51.992;8.648;2023-10-09T02:04:46;39.72;;;18.05;;
82296;SDS011;71899;51.992;8.648;2023-10-09T02:07:11;39.00;;;17.73;;
82296;SDS011;71899;51.992;8.648;2023-10-09T02:09:37;40.80;;;17.33;;
82296;SDS011;71899;51.992;8.648;2023-10-09T02:12:10;33.00;;;16.80;;
82296;SDS011;71899;51.992;8.648;2023-10-09T02:14:35;37.90;;;17.05;;
82296;SDS011;71899;51.992;8.648;2023-10-09T02:17:06;42.38;;;19.15;;
82296;SDS011;71899;51.992;8.648;2023-10-09T02:19:34;40.45;;;18.35;;
82296;SDS011;71899;51.992;8.648;2023-10-09T02:22:01;54.38;;;22.10;;
82296;SDS011;71899;51.992;8.648;2023-10-09T02:27:14;47.95;;;21.13;;
82296;SDS011;71899;51.992;8.648;2023-10-09T02:30:00;47.97;;;22.88;;
82296;SDS011;71899;51.992;8.648;2023-10-09T02:32:43;47.88;;;22.02;;
82296;SDS011;71899;51.992;8.648;2023-10-09T02:35:10;48.35;;;22.85;;
82296;SDS011;71899;51.992;8.648;2023-10-09T02:37:56;49.70;;;22.15;;
82296;SDS011;71899;51.992;8.648;2023-10-09T02:40:26;51.10;;;22.88;;
82296;SDS011;71899;51.992;8.648;2023-10-09T02:42:56;48.63;;;24.40;;
82296;SDS011;71899;51.992;8.648;2023-10-09T02:45:23;51.83;;;23.30;;
82296;SDS011;71899;51.992;8.648;2023-10-09T02:47:54;49.22;;;23.63;;
82296;SDS011;71899;51.992;8.648;2023-10-09T02:50:20;61.75;;;25.40;;
82296;SDS011;71899;51.992;8.648;2023-10-09T02:52:47;58.47;;;23.35;;
82296;SDS011;71899;51.992;8.648;2023-10-09T02:55:24;58.00;;;25.27;;
82296;SDS011;71899;51.992;8.648;2023-10-09T02:57:51;60.65;;;24.77;;
82296;SDS011;71899;51.992;8.648;2023-10-09T03:00:23;55.28;;;22.63;;
82296;SDS011;71899;51.992;8.648;2023-10-09T03:02:54;59.90;;;25.20;;
82296;SDS011;71899;51.992;8.648;2023-10-09T03:05:23;60.50;;;26.25;;
82296;SDS011;71899;51.992;8.648;2023-10-09T03:07:49;74.03;;;26.80;;
82296;SDS011;71899;51.992;8.648;2023-10-09T03:10:17;67.35;;;25.40;;
82296;SDS011;71899;51.992;8.648;2023-10-09T03:12:42;63.60;;;25.98;;
82296;SDS011;71899;51.992;8.648;2023-10-09T03:15:08;55.40;;;24.77;;
82296;SDS011;71899;51.992;8.648;2023-10-09T03:17:34;63.97;;;28.25;;
82296;SDS011;71899;51.992;8.648;2023-10-09T03:20:06;62.53;;;24.95;;
82296;SDS011;71899;51.992;8.648;2023-10-09T03:22:37;56.90;;;25.95;;
82296;SDS011;71899;51.992;8.648;2023-10-09T03:25:04;53.58;;;23.50;;
82296;SDS011;71899;51.992;8.648;2023-10-09T03:27:37;54.83;;;23.67;;
82296;SDS011;71899;51.992;8.648;2023-10-09T03:30:10;59.28;;;21.80;;
82296;SDS011;71899;51.992;8.648;2023-10-09T03:32:41;43.00;;;19.42;;
82296;SDS011;71899;51.992;8.648;2023-10-09T03:35:07;50.25;;;22.13;;
82296;SDS011;71899;51.992;8.648;2023-10-09T03:37:34;49.60;;;23.20;;
82296;SDS011;71899;51.992;8.648;2023-10-09T03:40:00;49.83;;;23.55;;
82296;SDS011;71899;51.992;8.648;2023-10-09T03:42:26;50.92;;;23.17;;
82296;SDS011;71899;51.992;8.648;2023-10-09T03:44:52;52.35;;;22.75;;
82296;SDS011;71899;51.992;8.648;2023-10-09T03:47:18;41.53;;;21.17;;
82296;SDS011;71899;51.992;8.648;2023-10-09T03:49:48;45.13;;;20.75;;
82296;SDS011;71899;51.992;8.648;2023-10-09T03:52:16;50.05;;;23.73;;
82296;SDS011;71899;51.992;8.648;2023-10-09T03:54:43;48.38;;;21.83;;
82296;SDS011;71899;51.992;8.648;2023-10-09T03:57:11;45.45;;;21.10;;
82296;SDS011;71899;51.992;8.648;2023-10-09T03:59:43;43.80;;;20.98;;
82296;SDS011;71899;51.992;8.648;2023-10-09T04:02:12;44.50;;;21.48;;
82296;SDS011;71899;51.992;8.648;2023-10-09T04:04:37;44.83;;;20.63;;
82296;SDS011;71899;51.992;8.648;2023-10-09T04:07:03;45.47;;;19.90;;
82296;SDS011;71899;51.992;8.648;2023-10-09T04:09:28;47.95;;;20.92;;
82296;SDS011;71899;51.992;8.648;2023-10-09T04:12:00;46.38;;;20.33;;
82296;SDS011;71899;51.992;8.648;2023-10-09T04:14:35;46.22;;;21.27;;
82296;SDS011;71899;51.992;8.648;2023-10-09T04:17:01;41.65;;;21.58;;
82296;SDS011;71899;51.992;8.648;2023-10-09T04:19:49;46.45;;;22.35;;
82296;SDS011;71899;51.992;8.648;2023-10-09T04:25:05;41.28;;;22.40;;
82296;SDS011;71899;51.992;8.648;2023-10-09T04:27:43;43.03;;;22.00;;
82296;SDS011;71899;51.992;8.648;2023-10-09T04:30:10;44.00;;;19.17;;
82296;SDS011;71899;51.992;8.648;2023-10-09T04:32:40;46.85;;;22.80;;
82296;SDS011;71899;51.992;8.648;2023-10-09T04:35:09;45.88;;;21.88;;
82296;SDS011;71899;51.992;8.648;2023-10-09T04:37:44;48.53;;;21.33;;
82296;SDS011;71899;51.992;8.648;2023-10-09T04:40:17;40.33;;;21.45;;
82296;SDS011;71899;51.992;8.648;2023-10-09T04:43:03;46.35;;;21.73;;
82296;SDS011;71899;51.992;8.648;2023-10-09T04:45:38;40.25;;;20.30;;
82296;SDS011;71899;51.992;8.648;2023-10-09T04:48:12;49.90;;;21.63;;
82296;SDS011;71899;51.992;8.648;2023-10-09T04:50:57;38.22;;;21.00;;
82296;SDS011;71899;51.992;8.648;2023-10-09T04:56:20;43.03;;;20.65;;
82296;SDS011;71899;51.992;8.648;2023-10-09T04:58:49;37.60;;;20.20;;
82296;SDS011;71899;51.992;8.648;2023-10-09T05:01:14;38.92;;;21.77;;
82296;SDS011;71899;51.992;8.648;2023-10-09T05:03:59;38.03;;;19.88;;
82296;SDS011;71899;51.992;8.648;2023-10-09T05:06:29;36.47;;;22.85;;
82296;SDS011;71899;51.992;8.648;2023-10-09T05:09:20;35.08;;;20.65;;
82296;SDS011;71899;51.992;8.648;2023-10-09T05:11:46;43.88;;;22.38;;
82296;SDS011;71899;51.992;8.648;2023-10-09T05:14:17;43.45;;;21.00;;
82296;SDS011;71899;51.992;8.648;2023-10-09T05:16:51;43.35;;;22.15;;
82296;SDS011;71899;51.992;8.648;2023-10-09T05:19:20;45.38;;;21.52;;
82296;SDS011;71899;51.992;8.648;2023-10-09T05:22:07;41.67;;;21.25;;
82296;SDS011;71899;51.992;8.648;2023-10-09T05:24:54;44.65;;;22.63;;
82296;SDS011;71899;51.992;8.648;2023-10-09T05:27:20;47.83;;;23.73;;
82296;SDS011;71899;51.992;8.648;2023-10-09T05:30:05;43.08;;;22.13;;
82296;SDS011;71899;51.992;8.648;2023-10-09T05:32:50;42.27;;;23.43;;
82296;SDS011;71899;51.992;8.648;2023-10-09T05:35:20;46.83;;;23.98;;
82296;SDS011;71899;51.992;8.648;2023-10-09T05:37:55;56.63;;;25.33;;
82296;SDS011;71899;51.992;8.648;2023-10-09T05:40:27;45.22;;;24.92;;
82296;SDS011;71899;51.992;8.648;2023-10-09T05:42:56;47.42;;;22.10;;
82296;SDS011;71899;51.992;8.648;2023-10-09T05:45:25;55.08;;;23.65;;
82296;SDS011;71899;51.992;8.648;2023-10-09T05:48:10;59.88;;;23.88;;
82296;SDS011;71899;51.992;8.648;2023-10-09T05:50:38;48.15;;;24.48;;
82296;SDS011;71899;51.992;8.648;2023-10-09T05:53:23;57.28;;;26.15;;
82296;SDS011;71899;51.992;8.648;2023-10-09T05:56:12;49.30;;;23.20;;
82296;SDS011;71899;51.992;8.648;2023-10-09T05:58:57;46.20;;;23.50;;
82296;SDS011;71899;51.992;8.648;2023-10-09T06:01:31;45.38;;;22.85;;
82296;SDS011;71899;51.992;8.648;2023-10-09T06:04:05;43.22;;;23.23;;
82296;SDS011;71899;51.992;8.648;2023-10-09T06:06:40;44.00;;;22.40;;
82296;SDS011;71899;51.992;8.648;2023-10-09T06:09:20;46.97;;;23.88;;
82296;SDS011;71899;51.992;8.648;2023-10-09T06:11:49;39.45;;;22.30;;
82296;SDS011;71899;51.992;8.648;2023-10-09T06:14:18;39.22;;;22.05;;
82296;SDS011;71899;51.992;8.648;2023-10-09T06:16:52;41.10;;;21.77;;
82296;SDS011;71899;51.992;8.648;2023-10-09T06:19:48;34.97;;;19.88;;
82296;SDS011;71899;51.992;8.648;2023-10-09T06:22:14;36.85;;;21.88;;
82296;SDS011;71899;51.992;8.648;2023-10-09T06:24:58;43.53;;;23.30;;
82296;SDS011;71899;51.992;8.648;2023-10-09T06:29:59;39.40;;;22.00;;
82296;SDS011;71899;51.992;8.648;2023-10-09T06:32:48;44.40;;;21.00;;
82296;SDS011;71899;51.992;8.648;2023-10-09T06:35:23;35.50;;;19.98;;
82296;SDS011;71899;51.992;8.648;2023-10-09T06:37:58;40.20;;;20.55;;
82296;SDS011;71899;51.992;8.648;2023-10-09T06:40:30;40.53;;;21.45;;
82296;SDS011;71899;51.992;8.648;2023-10-09T06:43:15;34.95;;;20.55;;
82296;SDS011;71899;51.992;8.648;2023-10-09T06:45:46;38.60;;;20.42;;
82296;SDS011;71899;51.992;8.648;2023-10-09T06:48:20;43.95;;;20.85;;
82296;SDS011;71899;51.992;8.648;2023-10-09T06:53:50;50.95;;;19.80;;
82296;SDS011;71899;51.992;8.648;2023-10-09T06:56:22;50.45;;;23.38;;
82296;SDS011;71899;51.992;8.648;2023-10-09T06:58:58;40.45;;;19.67;;
82296;SDS011;71899;51.992;8.648;2023-10-09T07:01:24;45.50;;;20.50;;
82296;SDS011;71899;51.992;8.648;2023-10-09T07:03:57;53.00;;;22.60;;
82296;SDS011;71899;51.992;8.648;2023-10-09T07:06:35;37.10;;;21.23;;
82296;SDS011;71899;51.992;8.648;2023-10-09T07:09:01;42.45;;;21.85;;
82296;SDS011;71899;51.992;8.648;2023-10-09T07:11:37;37.50;;;20.52;;
82296;SDS011;71899;51.992;8.648;2023-10-09T07:16:53;40.22;;;20.52;;
82296;SDS011;71899;51.992;8.648;2023-10-09T07:19:23;44.42;;;22.08;;
82296;SDS011;71899;51.992;8.648;2023-10-09T07:22:12;43.60;;;22.67;;
82296;SDS011;71899;51.992;8.648;2023-10-09T07:24:47;46.58;;;23.70;;
82296;SDS011;71899;51.992;8.648;2023-10-09T07:27:22;44.58;;;22.45;;
82296;SDS011;71899;51.992;8.648;2023-10-09T07:30:08;41.63;;;20.58;;
82296;SDS011;71899;51.992;8.648;2023-10-09T07:33:00;38.25;;;20.50;;
82296;SDS011;71899;51.992;8.648;2023-10-09T07:35:35;38.90;;;21.40;;
82296;SDS011;71899;51.992;8.648;2023-10-09T07:40:46;32.45;;;20.58;;
82296;SDS011;71899;51.992;8.648;2023-10-09T07:43:41;36.08;;;20.60;;
82296;SDS011;71899;51.992;8.648;2023-10-09T07:46:10;45.28;;;22.73;;
82296;SDS011;71899;51.992;8.648;2023-10-09T07:49:18;34.08;;;19.08;;
82296;SDS011;71899;51.992;8.648;2023-10-09T07:51:53;42.78;;;20.98;;
82296;SDS011;71899;51.992;8.648;2023-10-09T07:54:18;40.15;;;21.55;;
82296;SDS011;71899;51.992;8.648;2023-10-09T07:56:57;44.90;;;19.98;;
82296;SDS011;71899;51.992;8.648;2023-10-09T07:59:33;41.80;;;20.67;;
82296;SDS011;71899;51.992;8.648;2023-10-09T08:02:06;38.55;;;20.30;;
82296;SDS011;71899;51.992;8.648;2023-10-09T08:04:34;37.95;;;21.33;;
82296;SDS011;71899;51.992;8.648;2023-10-09T08:07:06;40.28;;;22.73;;
82296;SDS011;71899;51.992;8.648;2023-10-09T08:09:32;45.20;;;23.58;;
82296;SDS011;71899;51.992;8.648;2023-10-09T08:12:19;34.28;;;22.02;;
82296;SDS011;71899;51.992;8.648;2023-10-09T08:15:03;41.28;;;21.75;;
82296;SDS011;71899;51.992;8.648;2023-10-09T08:17:51;41.47;;;22.85;;
82296;SDS011;71899;51.992;8.648;2023-10-09T08:20:25;41.28;;;20.70;;
82296;SDS011;71899;51.992;8.648;2023-10-09T08:22:54;37.40;;;19.85;;
82296;SDS011;71899;51.992;8.648;2023-10-09T08:25:23;38.88;;;22.13;;
82296;SDS011;71899;51.992;8.648;2023-10-09T08:27:57;37.05;;;20.80;;
82296;SDS011;71899;51.992;8.648;2023-10-09T08:30:24;38.20;;;21.50;;
82296;SDS011;71899;51.992;8.648;2023-10-09T08:32:50;42.83;;;22.80;;
82296;SDS011;71899;51.992;8.648;2023-10-09T08:38:00;37.85;;;20.60;;
82296;SDS011;71899;51.992;8.648;2023-10-09T08:40:36;37.20;;;20.98;;
82296;SDS011;71899;51.992;8.648;2023-10-09T08:43:08;39.70;;;20.98;;
82296;SDS011;71899;51.992;8.648;2023-10-09T08:45:37;37.10;;;20.85;;
82296;SDS011;71899;51.992;8.648;2023-10-09T08:48:07;35.33;;;20.08;;
82296;SDS011;71899;51.992;8.648;2023-10-09T08:50:33;37.17;;;20.27;;
82296;SDS011;71899;51.992;8.648;2023-10-09T08:53:00;42.33;;;22.55;;
82296;SDS011;71899;51.992;8.648;2023-10-09T08:55:28;35.67;;;21.45;;
82296;SDS011;71899;51.992;8.648;2023-10-09T08:57:54;41.38;;;20.80;;
82296;SDS011;71899;51.992;8.648;2023-10-09T09:00:22;43.03;;;20.30;;
82296;SDS011;71899;51.992;8.648;2023-10-09T09:02:52;42.47;;;22.00;;
82296;SDS011;71899;51.992;8.648;2023-10-09T09:05:18;37.97;;;21.45;;
82296;SDS011;71899;51.992;8.648;2023-10-09T09:07:45;38.80;;;21.50;;
82296;SDS011;71899;51.992;8.648;2023-10-09T09:10:11;37.13;;;21.73;;
82296;SDS011;71899;51.992;8.648;2023-10-09T09:12:43;43.70;;;22.25;;
82296;SDS011;71899;51.992;8.648;2023-10-09T09:15:16;35.97;;;19.77;;
82296;SDS011;71899;51.992;8.648;2023-10-09T09:17:48;39.05;;;22.05;;
82296;SDS011;71899;51.992;8.648;2023-10-09T09:20:20;36.60;;;20.67;;
82296;SDS011;71899;51.992;8.648;2023-10-09T09:22:55;41.78;;;22.48;;
82296;SDS011;71899;51.992;8.648;2023-10-09T09:25:21;39.58;;;21.42;;
82296;SDS011;71899;51.992;8.648;2023-10-09T09:27:49;37.22;;;20.45;;
82296;SDS011;71899;51.992;8.648;2023-10-09T09:30:27;38.60;;;22.33;;
82296;SDS011;71899;51.992;8.648;2023-10-09T09:33:16;37.28;;;21.33;;
82296;SDS011;71899;51.992;8.648;2023-10-09T09:36:09;38.90;;;20.23;;
82296;SDS011;71899;51.992;8.648;2023-10-09T09:38:38;36.75;;;21.52;;
82296;SDS011;71899;51.992;8.648;2023-10-09T09:41:13;42.40;;;21.02;;
82296;SDS011;71899;51.992;8.648;2023-10-09T09:43:49;36.45;;;21.00;;
82296;SDS011;71899;51.992;8.648;2023-10-09T09:46:17;40.83;;;22.30;;
82296;SDS011;71899;51.992;8.648;2023-10-09T09:48:43;43.60;;;22.08;;
82296;SDS011;71899;51.992;8.648;2023-10-09T09:51:13;46.50;;;22.05;;
82296;SDS011;71899;51.992;8.648;2023-10-09T09:53:39;38.63;;;22.60;;
82296;SDS011;71899;51.992;8.648;2023-10-09T09:56:05;39.30;;;22.67;;
82296;SDS011;71899;51.992;8.648;2023-10-09T09:58:31;40.90;;;21.58;;
82296;SDS011;71899;51.992;8.648;2023-10-09T10:01:03;41.63;;;22.25;;
82296;SDS011;71899;51.992;8.648;2023-10-09T10:03:40;40.00;;;22.35;;
82296;SDS011;71899;51.992;8.648;2023-10-09T10:06:17;42.13;;;23.30;;
82296;SDS011;71899;51.992;8.648;2023-10-09T10:08:44;37.70;;;23.60;;
82296;SDS011;71899;51.992;8.648;2023-10-09T10:14:10;41.70;;;22.48;;
82296;SDS011;71899;51.992;8.648;2023-10-09T10:17:05;47.42;;;24.42;;
82296;SDS011;71899;51.992;8.648;2023-10-09T10:22:25;44.35;;;22.67;;
82296;SDS011;71899;51.992;8.648;2023-10-09T10:24:55;49.25;;;24.70;;
82296;SDS011;71899;51.992;8.648;2023-10-09T10:27:27;36.03;;;21.60;;
82296;SDS011;71899;51.992;8.648;2023-10-09T10:30:26;35.83;;;20.88;;
82296;SDS011;71899;51.992;8.648;2023-10-09T10:33:00;36.35;;;22.15;;
82296;SDS011;71899;51.992;8.648;2023-10-09T10:35:40;34.20;;;21.33;;
82296;SDS011;71899;51.992;8.648;2023-10-09T10:38:22;38.92;;;20.20;;
82296;SDS011;71899;51.992;8.648;2023-10-09T10:40:48;37.70;;;20.23;;
82296;SDS011;71899;51.992;8.648;2023-10-09T10:43:23;37.22;;;20.38;;
82296;SDS011;71899;51.992;8.648;2023-10-09T10:46:12;38.72;;;20.15;;
82296;SDS011;71899;51.992;8.648;2023-10-09T10:48:49;41.58;;;21.00;;
82296;SDS011;71899;51.992;8.648;2023-10-09T10:51:24;36.60;;;19.77;;
82296;SDS011;71899;51.992;8.648;2023-10-09T10:54:05;35.03;;;20.48;;
82296;SDS011;71899;51.992;8.648;2023-10-09T10:56:49;30.50;;;19.77;;
82296;SDS011;71899;51.992;8.648;2023-10-09T10:59:17;36.88;;;22.17;;
82296;SDS011;71899;51.992;8.648;2023-10-09T11:01:50;34.15;;;21.08;;
82296;SDS011;71899;51.992;8.648;2023-10-09T11:04:19;37.72;;;23.05;;
82296;SDS011;71899;51.992;8.648;2023-10-09T11:06:57;37.60;;;23.92;;
82296;SDS011;71899;51.992;8.648;2023-10-09T11:09:47;41.53;;;23.85;;
82296;SDS011;71899;51.992;8.648;2023-10-09T11:12:29;45.47;;;26.42;;
82296;SDS011;71899;51.992;8.648;2023-10-09T11:15:10;49.33;;;28.88;;
82296;SDS011;71899;51.992;8.648;2023-10-09T11:20:54;51.67;;;31.13;;
82296;SDS011;71899;51.992;8.648;2023-10-09T11:23:27;48.30;;;31.58;;
82296;SDS011;71899;51.992;8.648;2023-10-09T11:26:00;58.95;;;33.30;;
82296;SDS011;71899;51.992;8.648;2023-10-09T11:28:44;63.15;;;37.20;;
82296;SDS011;71899;51.992;8.648;2023-10-09T11:31:22;62.42;;;34.28;;
82296;SDS011;71899;51.992;8.648;2023-10-09T11:33:51;72.93;;;37.85;;
82296;SDS011;71899;51.992;8.648;2023-10-09T11:36:18;71.35;;;39.05;;
82296;SDS011;71899;51.992;8.648;2023-10-09T11:38:57;74.32;;;41.35;;
82296;SDS011;71899;51.992;8.648;2023-10-09T11:41:47;67.93;;;41.92;;
82296;SDS011;71899;51.992;8.648;2023-10-09T11:44:14;89.88;;;46.22;;
82296;SDS011;71899;51.992;8.648;2023-10-09T11:46:58;86.32;;;44.75;;
82296;SDS011;71899;51.992;8.648;2023-10-09T11:49:46;77.35;;;44.20;;
82296;SDS011;71899;51.992;8.648;2023-10-09T11:52:23;81.32;;;47.13;;
82296;SDS011;71899;51.992;8.648;2023-10-09T11:55:04;88.97;;;45.67;;
82296;SDS011;71899;51.992;8.648;2023-10-09T11:57:40;79.65;;;42.78;;
82296;SDS011;71899;51.992;8.648;2023-10-09T12:00:05;66.47;;;41.10;;
82296;SDS011;71899;51.992;8.648;2023-10-09T12:02:50;70.43;;;40.93;;
82296;SDS011;71899;51.992;8.648;2023-10-09T12:05:15;71.45;;;42.83;;
82296;SDS011;71899;51.992;8.648;2023-10-09T12:07:42;68.63;;;40.80;;
82296;SDS011;71899;51.992;8.648;2023-10-09T12:10:12;68.70;;;41.72;;
82296;SDS011;71899;51.992;8.648;2023-10-09T12:12:39;70.22;;;41.33;;
82296;SDS011;71899;51.992;8.648;2023-10-09T12:15:11;70.15;;;43.78;;
82296;SDS011;71899;51.992;8.648;2023-10-09T12:17:42;68.40;;;41.53;;
82296;SDS011;71899;51.992;8.648;2023-10-09T12:20:09;73.53;;;42.03;;
82296;SDS011;71899;51.992;8.648;2023-10-09T12:22:55;68.80;;;41.55;;
82296;SDS011;71899;51.992;8.648;2023-10-09T12:25:24;63.50;;;38.20;;
82296;SDS011;71899;51.992;8.648;2023-10-09T12:27:50;60.40;;;37.60;;
82296;SDS011;71899;51.992;8.648;2023-10-09T12:30:19;54.25;;;35.00;;
82296;SDS011;71899;51.992;8.648;2023-10-09T12:32:51;52.90;;;34.83;;
82296;SDS011;71899;51.992;8.648;2023-10-09T12:35:22;52.70;;;32.95;;
82296;SDS011;71899;51.992;8.648;2023-10-09T12:37:50;57.38;;;34.70;;
82296;SDS011;71899;51.992;8.648;2023-10-09T12:40:16;44.20;;;31.73;;
82296;SDS011;71899;51.992;8.648;2023-10-09T12:42:49;52.72;;;32.05;;
82296;SDS011;71899;51.992;8.648;2023-10-09T12:45:18;60.83;;;37.38;;
82296;SDS011;71899;51.992;8.648;2023-10-09T12:47:50;56.67;;;35.67;;
82296;SDS011;71899;51.992;8.648;2023-10-09T12:50:16;55.78;;;36.53;;
82296;SDS011;71899;51.992;8.648;2023-10-09T12:52:41;58.03;;;34.40;;
82296;SDS011;71899;51.992;8.648;2023-10-09T12:55:07;53.88;;;34.13;;
82296;SDS011;71899;51.992;8.648;2023-10-09T12:57:34;44.92;;;32.45;;
82296;SDS011;71899;51.992;8.648;2023-10-09T13:00:01;47.60;;;29.73;;
82296;SDS011;71899;51.992;8.648;2023-10-09T13:02:35;51.00;;;32.90;;
82296;SDS011;71899;51.992;8.648;2023-10-09T13:05:00;49.25;;;32.55;;
82296;SDS011;71899;51.992;8.648;2023-10-09T13:07:28;56.28;;;35.80;;
82296;SDS011;71899;51.992;8.648;2023-10-09T13:09:54;58.83;;;32.13;;
82296;SDS011;71899;51.992;8.648;2023-10-09T13:12:34;51.25;;;31.20;;
82296;SDS011;71899;51.992;8.648;2023-10-09T13:15:06;49.25;;;31.80;;
82296;SDS011;71899;51.992;8.648;2023-10-09T13:17:34;51.35;;;31.52;;
82296;SDS011;71899;51.992;8.648;2023-10-09T13:20:02;53.83;;;32.08;;
82296;SDS011;71899;51.992;8.648;2023-10-09T13:22:29;50.28;;;31.45;;
82296;SDS011;71899;51.992;8.648;2023-10-09T13:24:55;53.80;;;32.58;;
82296;SDS011;71899;51.992;8.648;2023-10-09T13:27:28;54.47;;;31.60;;
82296;SDS011;71899;51.992;8.648;2023-10-09T13:29:59;47.92;;;31.50;;
82296;SDS011;71899;51.992;8.648;2023-10-09T13:32:34;47.10;;;29.52;;
82296;SDS011;71899;51.992;8.648;2023-10-09T13:35:04;44.83;;;29.63;;
82296;SDS011;71899;51.992;8.648;2023-10-09T13:37:30;44.45;;;29.52;;
82296;SDS011;71899;51.992;8.648;2023-10-09T13:40:05;43.33;;;29.10;;
82296;SDS011;71899;51.992;8.648;2023-10-09T13:42:35;47.05;;;29.30;;
82296;SDS011;71899;51.992;8.648;2023-10-09T13:45:02;44.33;;;28.77;;
82296;SDS011;71899;51.992;8.648;2023-10-09T13:47:32;41.45;;;27.55;;
82296;SDS011;71899;51.992;8.648;2023-10-09T13:49:58;37.63;;;27.30;;
82296;SDS011;71899;51.992;8.648;2023-10-09T13:52:24;45.63;;;27.77;;
82296;SDS011;71899;51.992;8.648;2023-10-09T13:54:50;50.03;;;28.98;;
82296;SDS011;71899;51.992;8.648;2023-10-09T13:57:15;46.22;;;29.27;;
82296;SDS011;71899;51.992;8.648;2023-10-09T13:59:42;44.40;;;26.67;;
82296;SDS011;71899;51.992;8.648;2023-10-09T14:02:14;46.05;;;27.65;;
82296;SDS011;71899;51.992;8.648;2023-10-09T14:04:42;43.95;;;27.23;;
82296;SDS011;71899;51.992;8.648;2023-10-09T14:07:08;47.42;;;27.67;;
82296;SDS011;71899;51.992;8.648;2023-10-09T14:09:34;43.97;;;27.75;;
82296;SDS011;71899;51.992;8.648;2023-10-09T14:12:20;41.20;;;26.67;;
82296;SDS011;71899;51.992;8.648;2023-10-09T14:14:47;41.90;;;26.23;;
82296;SDS011;71899;51.992;8.648;2023-10-09T14:17:16;42.60;;;25.60;;
82296;SDS011;71899;51.992;8.648;2023-10-09T14:19:48;41.83;;;25.77;;
82296;SDS011;71899;51.992;8.648;2023-10-09T14:22:19;39.33;;;24.58;;
82296;SDS011;71899;51.992;8.648;2023-10-09T14:24:49;41.63;;;25.30;;
82296;SDS011;71899;51.992;8.648;2023-10-09T14:27:20;38.38;;;24.75;;
82296;SDS011;71899;51.992;8.648;2023-10-09T14:29:48;42.13;;;25.35;;
82296;SDS011;71899;51.992;8.648;2023-10-09T14:32:15;43.17;;;27.08;;
82296;SDS011;71899;51.992;8.648;2023-10-09T14:34:41;45.63;;;27.33;;
82296;SDS011;71899;51.992;8.648;2023-10-09T14:37:19;51.58;;;27.92;;
82296;SDS011;71899;51.992;8.648;2023-10-09T14:39:45;51.55;;;31.40;;
82296;SDS011;71899;51.992;8.648;2023-10-09T14:42:13;45.03;;;27.33;;
82296;SDS011;71899;51.992;8.648;2023-10-09T14:44:40;57.00;;;30.63;;
82296;SDS011;71899;51.992;8.648;2023-10-09T14:47:06;45.92;;;28.38;;
82296;SDS011;71899;51.992;8.648;2023-10-09T14:49:35;50.17;;;29.60;;
82296;SDS011;71899;51.992;8.648;2023-10-09T14:52:03;46.47;;;28.63;;
82296;SDS011;71899;51.992;8.648;2023-10-09T14:54:33;55.92;;;27.55;;
82296;SDS011;71899;51.992;8.648;2023-10-09T14:56:59;44.85;;;26.58;;
82296;SDS011;71899;51.992;8.648;2023-10-09T14:59:24;37.38;;;24.55;;
82296;SDS011;71899;51.992;8.648;2023-10-09T15:01:50;32.17;;;21.08;;
82296;SDS011;71899;51.992;8.648;2023-10-09T15:04:18;40.00;;;23.73;;
82296;SDS011;71899;51.992;8.648;2023-10-09T15:06:44;33.90;;;20.83;;
82296;SDS011;71899;51.992;8.648;2023-10-09T15:09:09;39.47;;;21.58;;
82296;SDS011;71899;51.992;8.648;2023-10-09T15:11:46;37.65;;;21.38;;
82296;SDS011;71899;51.992;8.648;2023-10-09T15:14:13;43.67;;;22.67;;
82296;SDS011;71899;51.992;8.648;2023-10-09T15:16:38;42.53;;;23.13;;
82296;SDS011;71899;51.992;8.648;2023-10-09T15:19:04;34.78;;;20.92;;
82296;SDS011;71899;51.992;8.648;2023-10-09T15:21:29;33.08;;;21.38;;